sensor_id;sensor_type;location;lat;lon;timestamp;P1;durP1;ratioP1;P2;durP2;ratioP2
19547;SDS011;9919;58.014;11.826;2023-05-02T00:00:55;0.38;;;0.38;;
19547;SDS011;9919;58.014;11.826;2023-05-02T00:02:57;0.57;;;0.57;;
19547;SDS011;9919;58.014;11.826;2023-05-02T00:05:00;0.52;;;0.40;;
19547;SDS011;9919;58.014;11.826;2023-05-02T00:07:02;0.32;;;0.32;;
19547;SDS011;9919;58.014;11.826;2023-05-02T00:09:04;0.35;;;0.35;;
19547;SDS011;9919;58.014;11.826;2023-05-02T00:11:05;0.45;;;0.45;;
19547;SDS011;9919;58.014;11.826;2023-05-02T00:13:07;0.50;;;0.50;;
19547;SDS011;9919;58.014;11.826;2023-05-02T00:15:09;1.05;;;0.40;;
19547;SDS011;9919;58.014;11.826;2023-05-02T00:17:16;0.52;;;0.52;;
19547;SDS011;9919;58.014;11.826;2023-05-02T00:19:19;0.40;;;0.40;;
19547;SDS011;9919;58.014;11.826;2023-05-02T00:21:21;0.40;;;0.40;;
19547;SDS011;9919;58.014;11.826;2023-05-02T00:23:22;0.45;;;0.32;;
19547;SDS011;9919;58.014;11.826;2023-05-02T00:25:23;0.50;;;0.50;;
19547;SDS011;9919;58.014;11.826;2023-05-02T00:27:25;0.38;;;0.38;;
19547;SDS011;9919;58.014;11.826;2023-05-02T00:29:26;0.30;;;0.30;;
19547;SDS011;9919;58.014;11.826;2023-05-02T00:31:28;0.55;;;0.55;;
19547;SDS011;9919;58.014;11.826;2023-05-02T00:33:29;0.28;;;0.28;;
19547;SDS011;9919;58.014;11.826;2023-05-02T00:35:32;0.40;;;0.40;;
19547;SDS011;9919;58.014;11.826;2023-05-02T00:37:33;0.70;;;0.70;;
19547;SDS011;9919;58.014;11.826;2023-05-02T00:39:35;0.38;;;0.38;;
19547;SDS011;9919;58.014;11.826;2023-05-02T00:41:36;1.00;;;0.40;;
19547;SDS011;9919;58.014;11.826;2023-05-02T00:43:37;0.30;;;0.30;;
19547;SDS011;9919;58.014;11.826;2023-05-02T00:45:40;0.20;;;0.20;;
19547;SDS011;9919;58.014;11.826;2023-05-02T00:47:42;0.77;;;0.50;;
19547;SDS011;9919;58.014;11.826;2023-05-02T00:49:44;0.28;;;0.28;;
19547;SDS011;9919;58.014;11.826;2023-05-02T00:51:46;4.57;;;0.88;;
19547;SDS011;9919;58.014;11.826;2023-05-02T00:53:47;0.35;;;0.35;;
19547;SDS011;9919;58.014;11.826;2023-05-02T00:55:49;0.30;;;0.30;;
19547;SDS011;9919;58.014;11.826;2023-05-02T00:57:51;0.57;;;0.57;;
19547;SDS011;9919;58.014;11.826;2023-05-02T00:59:53;0.43;;;0.43;;
19547;SDS011;9919;58.014;11.826;2023-05-02T01:02:18;0.38;;;0.38;;
19547;SDS011;9919;58.014;11.826;2023-05-02T01:12:14;0.30;;;0.30;;
19547;SDS011;9919;58.014;11.826;2023-05-02T01:14:22;0.40;;;0.40;;
19547;SDS011;9919;58.014;11.826;2023-05-02T01:16:24;0.30;;;0.30;;
19547;SDS011;9919;58.014;11.826;2023-05-02T01:18:27;0.55;;;0.47;;
19547;SDS011;9919;58.014;11.826;2023-05-02T01:20:31;0.47;;;0.47;;
19547;SDS011;9919;58.014;11.826;2023-05-02T01:22:37;0.28;;;0.28;;
19547;SDS011;9919;58.014;11.826;2023-05-02T01:24:45;0.30;;;0.30;;
19547;SDS011;9919;58.014;11.826;2023-05-02T01:27:06;0.13;;;0.13;;
19547;SDS011;9919;58.014;11.826;2023-05-02T01:29:21;0.50;;;0.50;;
19547;SDS011;9919;58.014;11.826;2023-05-02T01:31:27;0.50;;;0.50;;
19547;SDS011;9919;58.014;11.826;2023-05-02T01:33:41;0.52;;;0.40;;
19547;SDS011;9919;58.014;11.826;2023-05-02T01:35:43;0.20;;;0.20;;
19547;SDS011;9919;58.014;11.826;2023-05-02T01:37:47;0.38;;;0.38;;
19547;SDS011;9919;58.014;11.826;2023-05-02T01:39:48;0.50;;;0.50;;
19547;SDS011;9919;58.014;11.826;2023-05-02T01:41:52;0.60;;;0.60;;
19547;SDS011;9919;58.014;11.826;2023-05-02T01:43:56;0.22;;;0.22;;
19547;SDS011;9919;58.014;11.826;2023-05-02T01:45:58;0.30;;;0.30;;
19547;SDS011;9919;58.014;11.826;2023-05-02T01:48:01;0.30;;;0.30;;
19547;SDS011;9919;58.014;11.826;2023-05-02T01:50:04;0.52;;;0.40;;
19547;SDS011;9919;58.014;11.826;2023-05-02T01:52:09;0.30;;;0.30;;
19547;SDS011;9919;58.014;11.826;2023-05-02T01:54:12;0.43;;;0.43;;
19547;SDS011;9919;58.014;11.826;2023-05-02T01:56:15;0.73;;;0.73;;
19547;SDS011;9919;58.014;11.826;2023-05-02T01:58:18;0.55;;;0.55;;
19547;SDS011;9919;58.014;11.826;2023-05-02T02:00:20;0.45;;;0.45;;
19547;SDS011;9919;58.014;11.826;2023-05-02T02:02:26;0.65;;;0.65;;
19547;SDS011;9919;58.014;11.826;2023-05-02T02:04:28;0.28;;;0.28;;
19547;SDS011;9919;58.014;11.826;2023-05-02T02:06:29;0.30;;;0.30;;
19547;SDS011;9919;58.014;11.826;2023-05-02T02:08:31;0.50;;;0.50;;
19547;SDS011;9919;58.014;11.826;2023-05-02T02:10:35;0.45;;;0.45;;
19547;SDS011;9919;58.014;11.826;2023-05-02T02:13:00;0.40;;;0.40;;
19547;SDS011;9919;58.014;11.826;2023-05-02T02:15:07;0.50;;;0.50;;
19547;SDS011;9919;58.014;11.826;2023-05-02T02:17:13;0.32;;;0.32;;
19547;SDS011;9919;58.014;11.826;2023-05-02T02:19:17;0.40;;;0.40;;
19547;SDS011;9919;58.014;11.826;2023-05-02T02:21:19;0.40;;;0.40;;
19547;SDS011;9919;58.014;11.826;2023-05-02T02:23:21;0.40;;;0.40;;
19547;SDS011;9919;58.014;11.826;2023-05-02T02:25:24;0.35;;;0.35;;
19547;SDS011;9919;58.014;11.826;2023-05-02T02:27:26;0.45;;;0.45;;
19547;SDS011;9919;58.014;11.826;2023-05-02T02:29:28;0.50;;;0.50;;
19547;SDS011;9919;58.014;11.826;2023-05-02T02:31:33;0.40;;;0.40;;
19547;SDS011;9919;58.014;11.826;2023-05-02T02:33:35;1.08;;;0.30;;
19547;SDS011;9919;58.014;11.826;2023-05-02T02:35:38;0.45;;;0.45;;
19547;SDS011;9919;58.014;11.826;2023-05-02T02:44:48;0.52;;;0.52;;
19547;SDS011;9919;58.014;11.826;2023-05-02T02:51:36;0.60;;;0.60;;
19547;SDS011;9919;58.014;11.826;2023-05-02T02:56:25;0.30;;;0.30;;
19547;SDS011;9919;58.014;11.826;2023-05-02T03:00:58;2.05;;;0.43;;
19547;SDS011;9919;58.014;11.826;2023-05-02T03:03:03;1.00;;;0.68;;
19547;SDS011;9919;58.014;11.826;2023-05-02T03:05:07;0.43;;;0.43;;
19547;SDS011;9919;58.014;11.826;2023-05-02T03:07:09;0.60;;;0.60;;
19547;SDS011;9919;58.014;11.826;2023-05-02T03:09:16;0.40;;;0.40;;
19547;SDS011;9919;58.014;11.826;2023-05-02T03:11:17;0.30;;;0.30;;
19547;SDS011;9919;58.014;11.826;2023-05-02T03:13:19;0.45;;;0.45;;
19547;SDS011;9919;58.014;11.826;2023-05-02T03:15:27;0.35;;;0.35;;
19547;SDS011;9919;58.014;11.826;2023-05-02T03:17:44;0.40;;;0.40;;
19547;SDS011;9919;58.014;11.826;2023-05-02T03:19:47;0.63;;;0.40;;
19547;SDS011;9919;58.014;11.826;2023-05-02T03:21:49;0.50;;;0.50;;
19547;SDS011;9919;58.014;11.826;2023-05-02T03:23:50;0.40;;;0.40;;
19547;SDS011;9919;58.014;11.826;2023-05-02T03:25:52;0.98;;;0.45;;
19547;SDS011;9919;58.014;11.826;2023-05-02T03:27:55;0.20;;;0.20;;
19547;SDS011;9919;58.014;11.826;2023-05-02T03:29:57;0.40;;;0.40;;
19547;SDS011;9919;58.014;11.826;2023-05-02T03:31:58;0.40;;;0.40;;
19547;SDS011;9919;58.014;11.826;2023-05-02T03:34:00;1.08;;;0.50;;
19547;SDS011;9919;58.014;11.826;2023-05-02T03:36:01;0.47;;;0.47;;
19547;SDS011;9919;58.014;11.826;2023-05-02T03:38:03;0.20;;;0.20;;
19547;SDS011;9919;58.014;11.826;2023-05-02T03:40:05;0.40;;;0.40;;
19547;SDS011;9919;58.014;11.826;2023-05-02T03:42:06;0.25;;;0.25;;
19547;SDS011;9919;58.014;11.826;2023-05-02T03:44:08;0.50;;;0.50;;
19547;SDS011;9919;58.014;11.826;2023-05-02T03:46:09;0.40;;;0.40;;
19547;SDS011;9919;58.014;11.826;2023-05-02T03:48:11;0.40;;;0.40;;
19547;SDS011;9919;58.014;11.826;2023-05-02T03:50:12;0.80;;;0.35;;
19547;SDS011;9919;58.014;11.826;2023-05-02T03:52:14;0.38;;;0.38;;
19547;SDS011;9919;58.014;11.826;2023-05-02T03:54:15;0.50;;;0.50;;
19547;SDS011;9919;58.014;11.826;2023-05-02T03:56:18;1.38;;;0.47;;
19547;SDS011;9919;58.014;11.826;2023-05-02T03:58:19;0.40;;;0.40;;
19547;SDS011;9919;58.014;11.826;2023-05-02T04:00:21;0.60;;;0.60;;
19547;SDS011;9919;58.014;11.826;2023-05-02T04:02:23;0.47;;;0.47;;
19547;SDS011;9919;58.014;11.826;2023-05-02T04:04:25;0.47;;;0.47;;
19547;SDS011;9919;58.014;11.826;2023-05-02T04:06:26;0.28;;;0.28;;
19547;SDS011;9919;58.014;11.826;2023-05-02T04:08:27;0.63;;;0.63;;
19547;SDS011;9919;58.014;11.826;2023-05-02T04:10:29;0.40;;;0.40;;
19547;SDS011;9919;58.014;11.826;2023-05-02T04:12:30;0.40;;;0.40;;
19547;SDS011;9919;58.014;11.826;2023-05-02T04:14:32;0.80;;;0.80;;
19547;SDS011;9919;58.014;11.826;2023-05-02T04:16:33;0.40;;;0.40;;
19547;SDS011;9919;58.014;11.826;2023-05-02T04:18:35;0.68;;;0.68;;
19547;SDS011;9919;58.014;11.826;2023-05-02T04:20:37;0.40;;;0.40;;
19547;SDS011;9919;58.014;11.826;2023-05-02T04:22:40;0.65;;;0.57;;
19547;SDS011;9919;58.014;11.826;2023-05-02T04:24:42;0.80;;;0.80;;
19547;SDS011;9919;58.014;11.826;2023-05-02T04:26:43;0.35;;;0.35;;
19547;SDS011;9919;58.014;11.826;2023-05-02T04:28:47;0.55;;;0.55;;
19547;SDS011;9919;58.014;11.826;2023-05-02T04:30:49;0.63;;;0.63;;
19547;SDS011;9919;58.014;11.826;2023-05-02T04:32:51;0.50;;;0.50;;
19547;SDS011;9919;58.014;11.826;2023-05-02T04:34:53;1.35;;;0.60;;
19547;SDS011;9919;58.014;11.826;2023-05-02T04:36:55;0.40;;;0.40;;
19547;SDS011;9919;58.014;11.826;2023-05-02T04:38:56;0.40;;;0.40;;
19547;SDS011;9919;58.014;11.826;2023-05-02T04:40:57;0.32;;;0.32;;
19547;SDS011;9919;58.014;11.826;2023-05-02T04:42:59;0.70;;;0.70;;
19547;SDS011;9919;58.014;11.826;2023-05-02T04:45:00;0.52;;;0.52;;
19547;SDS011;9919;58.014;11.826;2023-05-02T04:47:03;0.65;;;0.65;;
19547;SDS011;9919;58.014;11.826;2023-05-02T04:49:04;0.60;;;0.60;;
19547;SDS011;9919;58.014;11.826;2023-05-02T04:51:06;0.43;;;0.43;;
19547;SDS011;9919;58.014;11.826;2023-05-02T04:53:09;1.85;;;0.50;;
19547;SDS011;9919;58.014;11.826;2023-05-02T04:55:10;1.08;;;0.40;;
19547;SDS011;9919;58.014;11.826;2023-05-02T04:57:12;0.30;;;0.30;;
19547;SDS011;9919;58.014;11.826;2023-05-02T04:59:13;1.55;;;0.40;;
19547;SDS011;9919;58.014;11.826;2023-05-02T05:01:15;0.30;;;0.30;;
19547;SDS011;9919;58.014;11.826;2023-05-02T05:03:17;0.55;;;0.55;;
19547;SDS011;9919;58.014;11.826;2023-05-02T05:05:18;0.68;;;0.68;;
19547;SDS011;9919;58.014;11.826;2023-05-02T05:07:20;0.40;;;0.40;;
19547;SDS011;9919;58.014;11.826;2023-05-02T05:09:22;0.43;;;0.43;;
19547;SDS011;9919;58.014;11.826;2023-05-02T05:11:24;0.43;;;0.43;;
19547;SDS011;9919;58.014;11.826;2023-05-02T05:13:25;0.40;;;0.40;;
19547;SDS011;9919;58.014;11.826;2023-05-02T05:15:27;0.60;;;0.60;;
19547;SDS011;9919;58.014;11.826;2023-05-02T05:17:28;0.70;;;0.70;;
19547;SDS011;9919;58.014;11.826;2023-05-02T05:19:30;1.02;;;0.45;;
19547;SDS011;9919;58.014;11.826;2023-05-02T05:21:31;0.75;;;0.75;;
19547;SDS011;9919;58.014;11.826;2023-05-02T05:23:34;0.77;;;0.70;;
19547;SDS011;9919;58.014;11.826;2023-05-02T05:25:37;0.60;;;0.60;;
19547;SDS011;9919;58.014;11.826;2023-05-02T05:27:39;0.60;;;0.60;;
19547;SDS011;9919;58.014;11.826;2023-05-02T05:29:40;0.40;;;0.40;;
19547;SDS011;9919;58.014;11.826;2023-05-02T05:31:42;0.60;;;0.60;;
19547;SDS011;9919;58.014;11.826;2023-05-02T05:33:45;1.15;;;0.75;;
19547;SDS011;9919;58.014;11.826;2023-05-02T05:35:46;1.33;;;1.17;;
19547;SDS011;9919;58.014;11.826;2023-05-02T05:37:48;0.82;;;0.38;;
19547;SDS011;9919;58.014;11.826;2023-05-02T05:39:51;0.57;;;0.57;;
19547;SDS011;9919;58.014;11.826;2023-05-02T05:41:52;0.55;;;0.52;;
19547;SDS011;9919;58.014;11.826;2023-05-02T05:43:53;0.52;;;0.52;;
19547;SDS011;9919;58.014;11.826;2023-05-02T05:45:55;0.40;;;0.30;;
19547;SDS011;9919;58.014;11.826;2023-05-02T05:47:56;0.50;;;0.50;;
19547;SDS011;9919;58.014;11.826;2023-05-02T05:49:58;0.65;;;0.65;;
19547;SDS011;9919;58.014;11.826;2023-05-02T05:51:59;0.75;;;0.75;;
19547;SDS011;9919;58.014;11.826;2023-05-02T05:54:01;0.60;;;0.60;;
19547;SDS011;9919;58.014;11.826;2023-05-02T05:56:11;1.58;;;0.90;;
19547;SDS011;9919;58.014;11.826;2023-05-02T05:58:13;0.80;;;0.80;;
19547;SDS011;9919;58.014;11.826;2023-05-02T06:00:15;0.70;;;0.70;;
19547;SDS011;9919;58.014;11.826;2023-05-02T06:02:17;0.32;;;0.32;;
19547;SDS011;9919;58.014;11.826;2023-05-02T06:04:21;0.60;;;0.60;;
19547;SDS011;9919;58.014;11.826;2023-05-02T06:06:23;0.52;;;0.52;;
19547;SDS011;9919;58.014;11.826;2023-05-02T06:08:24;0.65;;;0.65;;
19547;SDS011;9919;58.014;11.826;2023-05-02T06:10:29;0.40;;;0.40;;
19547;SDS011;9919;58.014;11.826;2023-05-02T06:12:31;0.68;;;0.68;;
19547;SDS011;9919;58.014;11.826;2023-05-02T06:14:33;0.63;;;0.63;;
19547;SDS011;9919;58.014;11.826;2023-05-02T06:16:34;2.08;;;0.60;;
19547;SDS011;9919;58.014;11.826;2023-05-02T06:18:35;0.57;;;0.57;;
19547;SDS011;9919;58.014;11.826;2023-05-02T06:20:37;0.70;;;0.70;;
19547;SDS011;9919;58.014;11.826;2023-05-02T06:22:38;0.63;;;0.63;;
19547;SDS011;9919;58.014;11.826;2023-05-02T06:24:40;0.52;;;0.52;;
19547;SDS011;9919;58.014;11.826;2023-05-02T06:26:41;0.57;;;0.57;;
19547;SDS011;9919;58.014;11.826;2023-05-02T06:28:42;2.47;;;0.80;;
19547;SDS011;9919;58.014;11.826;2023-05-02T06:30:45;0.40;;;0.40;;
19547;SDS011;9919;58.014;11.826;2023-05-02T06:32:46;0.20;;;0.20;;
19547;SDS011;9919;58.014;11.826;2023-05-02T06:34:47;0.50;;;0.45;;
19547;SDS011;9919;58.014;11.826;2023-05-02T06:36:52;0.22;;;0.22;;
19547;SDS011;9919;58.014;11.826;2023-05-02T06:38:56;0.45;;;0.40;;
19547;SDS011;9919;58.014;11.826;2023-05-02T06:40:58;1.02;;;0.73;;
19547;SDS011;9919;58.014;11.826;2023-05-02T06:43:01;0.57;;;0.57;;
19547;SDS011;9919;58.014;11.826;2023-05-02T06:45:02;0.32;;;0.32;;
19547;SDS011;9919;58.014;11.826;2023-05-02T06:47:05;0.55;;;0.55;;
19547;SDS011;9919;58.014;11.826;2023-05-02T06:49:06;0.55;;;0.55;;
19547;SDS011;9919;58.014;11.826;2023-05-02T06:51:08;0.98;;;0.98;;
19547;SDS011;9919;58.014;11.826;2023-05-02T06:53:10;1.15;;;0.80;;
19547;SDS011;9919;58.014;11.826;2023-05-02T06:55:11;0.70;;;0.70;;
19547;SDS011;9919;58.014;11.826;2023-05-02T06:57:13;0.50;;;0.50;;
19547;SDS011;9919;58.014;11.826;2023-05-02T06:59:14;0.60;;;0.60;;
19547;SDS011;9919;58.014;11.826;2023-05-02T07:01:15;0.47;;;0.47;;
19547;SDS011;9919;58.014;11.826;2023-05-02T07:03:17;0.30;;;0.30;;
19547;SDS011;9919;58.014;11.826;2023-05-02T07:05:18;0.40;;;0.40;;
19547;SDS011;9919;58.014;11.826;2023-05-02T07:07:20;0.80;;;0.75;;
19547;SDS011;9919;58.014;11.826;2023-05-02T07:09:21;0.43;;;0.43;;
19547;SDS011;9919;58.014;11.826;2023-05-02T07:11:23;2.05;;;0.70;;
19547;SDS011;9919;58.014;11.826;2023-05-02T07:13:25;1.05;;;0.98;;
19547;SDS011;9919;58.014;11.826;2023-05-02T07:15:27;0.50;;;0.50;;
19547;SDS011;9919;58.014;11.826;2023-05-02T07:17:28;0.65;;;0.38;;
19547;SDS011;9919;58.014;11.826;2023-05-02T07:19:30;0.45;;;0.45;;
19547;SDS011;9919;58.014;11.826;2023-05-02T07:21:32;1.70;;;0.50;;
19547;SDS011;9919;58.014;11.826;2023-05-02T07:23:34;0.82;;;0.60;;
19547;SDS011;9919;58.014;11.826;2023-05-02T07:25:35;0.70;;;0.70;;
19547;SDS011;9919;58.014;11.826;2023-05-02T07:27:37;0.50;;;0.50;;
19547;SDS011;9919;58.014;11.826;2023-05-02T07:29:39;0.65;;;0.65;;
19547;SDS011;9919;58.014;11.826;2023-05-02T07:31:41;0.55;;;0.55;;
19547;SDS011;9919;58.014;11.826;2023-05-02T07:33:43;1.92;;;0.90;;
19547;SDS011;9919;58.014;11.826;2023-05-02T07:35:44;0.60;;;0.60;;
19547;SDS011;9919;58.014;11.826;2023-05-02T07:37:46;1.75;;;1.08;;
19547;SDS011;9919;58.014;11.826;2023-05-02T07:39:47;0.60;;;0.60;;
19547;SDS011;9919;58.014;11.826;2023-05-02T07:41:52;1.05;;;0.75;;
19547;SDS011;9919;58.014;11.826;2023-05-02T07:43:55;0.60;;;0.60;;
19547;SDS011;9919;58.014;11.826;2023-05-02T07:45:57;1.30;;;0.60;;
19547;SDS011;9919;58.014;11.826;2023-05-02T07:48:02;0.68;;;0.63;;
19547;SDS011;9919;58.014;11.826;2023-05-02T07:50:04;2.08;;;0.95;;
19547;SDS011;9919;58.014;11.826;2023-05-02T07:52:06;0.52;;;0.52;;
19547;SDS011;9919;58.014;11.826;2023-05-02T07:54:17;0.70;;;0.50;;
19547;SDS011;9919;58.014;11.826;2023-05-02T07:56:20;0.40;;;0.40;;
19547;SDS011;9919;58.014;11.826;2023-05-02T07:58:21;0.60;;;0.60;;
19547;SDS011;9919;58.014;11.826;2023-05-02T08:00:23;0.60;;;0.60;;
19547;SDS011;9919;58.014;11.826;2023-05-02T08:02:24;0.75;;;0.60;;
19547;SDS011;9919;58.014;11.826;2023-05-02T08:04:26;1.00;;;0.70;;
19547;SDS011;9919;58.014;11.826;2023-05-02T08:06:27;1.63;;;0.40;;
19547;SDS011;9919;58.014;11.826;2023-05-02T08:08:29;0.50;;;0.50;;
19547;SDS011;9919;58.014;11.826;2023-05-02T08:10:31;1.40;;;0.60;;
19547;SDS011;9919;58.014;11.826;2023-05-02T08:12:36;0.43;;;0.43;;
19547;SDS011;9919;58.014;11.826;2023-05-02T08:14:39;1.00;;;0.68;;
19547;SDS011;9919;58.014;11.826;2023-05-02T08:16:40;0.70;;;0.70;;
19547;SDS011;9919;58.014;11.826;2023-05-02T08:18:42;0.40;;;0.40;;
19547;SDS011;9919;58.014;11.826;2023-05-02T08:20:43;0.88;;;0.70;;
19547;SDS011;9919;58.014;11.826;2023-05-02T08:22:47;0.70;;;0.70;;
19547;SDS011;9919;58.014;11.826;2023-05-02T08:24:50;6.70;;;0.77;;
19547;SDS011;9919;58.014;11.826;2023-05-02T08:26:51;0.68;;;0.55;;
19547;SDS011;9919;58.014;11.826;2023-05-02T08:28:53;0.60;;;0.60;;
19547;SDS011;9919;58.014;11.826;2023-05-02T08:30:55;0.57;;;0.57;;
19547;SDS011;9919;58.014;11.826;2023-05-02T08:32:57;1.92;;;0.85;;
19547;SDS011;9919;58.014;11.826;2023-05-02T08:34:59;1.02;;;0.60;;
19547;SDS011;9919;58.014;11.826;2023-05-02T08:37:06;0.88;;;0.85;;
19547;SDS011;9919;58.014;11.826;2023-05-02T08:39:08;3.55;;;1.00;;
19547;SDS011;9919;58.014;11.826;2023-05-02T08:41:14;1.02;;;0.50;;
19547;SDS011;9919;58.014;11.826;2023-05-02T08:43:16;0.43;;;0.43;;
19547;SDS011;9919;58.014;11.826;2023-05-02T08:45:18;0.90;;;0.90;;
19547;SDS011;9919;58.014;11.826;2023-05-02T08:47:20;0.40;;;0.40;;
19547;SDS011;9919;58.014;11.826;2023-05-02T08:49:23;0.43;;;0.43;;
19547;SDS011;9919;58.014;11.826;2023-05-02T08:51:27;0.75;;;0.75;;
19547;SDS011;9919;58.014;11.826;2023-05-02T08:53:33;0.85;;;0.70;;
19547;SDS011;9919;58.014;11.826;2023-05-02T08:55:38;0.50;;;0.50;;
19547;SDS011;9919;58.014;11.826;2023-05-02T08:57:40;0.40;;;0.40;;
19547;SDS011;9919;58.014;11.826;2023-05-02T08:59:43;1.33;;;0.70;;
19547;SDS011;9919;58.014;11.826;2023-05-02T09:01:44;1.85;;;0.70;;
19547;SDS011;9919;58.014;11.826;2023-05-02T09:03:49;0.75;;;0.52;;
19547;SDS011;9919;58.014;11.826;2023-05-02T09:05:51;1.38;;;0.70;;
19547;SDS011;9919;58.014;11.826;2023-05-02T09:07:54;0.88;;;0.57;;
19547;SDS011;9919;58.014;11.826;2023-05-02T09:09:55;3.30;;;0.68;;
19547;SDS011;9919;58.014;11.826;2023-05-02T09:11:57;0.63;;;0.63;;
19547;SDS011;9919;58.014;11.826;2023-05-02T09:13:58;0.50;;;0.50;;
19547;SDS011;9919;58.014;11.826;2023-05-02T09:18:07;1.85;;;0.70;;
19547;SDS011;9919;58.014;11.826;2023-05-02T09:20:09;2.72;;;0.47;;
19547;SDS011;9919;58.014;11.826;2023-05-02T09:22:11;0.73;;;0.60;;
19547;SDS011;9919;58.014;11.826;2023-05-02T09:24:23;0.70;;;0.70;;
19547;SDS011;9919;58.014;11.826;2023-05-02T09:26:26;4.63;;;0.73;;
19547;SDS011;9919;58.014;11.826;2023-05-02T09:28:47;2.28;;;0.65;;
19547;SDS011;9919;58.014;11.826;2023-05-02T09:30:56;2.33;;;0.43;;
19547;SDS011;9919;58.014;11.826;2023-05-02T09:33:10;3.00;;;0.68;;
19547;SDS011;9919;58.014;11.826;2023-05-02T09:35:11;1.92;;;0.82;;
19547;SDS011;9919;58.014;11.826;2023-05-02T09:37:34;3.17;;;0.80;;
19547;SDS011;9919;58.014;11.826;2023-05-02T09:39:36;2.88;;;1.27;;
19547;SDS011;9919;58.014;11.826;2023-05-02T09:43:42;2.22;;;1.38;;
19547;SDS011;9919;58.014;11.826;2023-05-02T09:46:03;5.32;;;1.48;;
19547;SDS011;9919;58.014;11.826;2023-05-02T09:48:08;65.43;;;25.80;;
19547;SDS011;9919;58.014;11.826;2023-05-02T09:50:10;43.40;;;16.25;;
19547;SDS011;9919;58.014;11.826;2023-05-02T09:52:30;60.08;;;20.80;;
19547;SDS011;9919;58.014;11.826;2023-05-02T09:54:34;100.80;;;24.92;;
19547;SDS011;9919;58.014;11.826;2023-05-02T09:56:50;46.60;;;14.75;;
19547;SDS011;9919;58.014;11.826;2023-05-02T09:59:35;145.68;;;42.25;;
19547;SDS011;9919;58.014;11.826;2023-05-02T10:01:17;129.68;;;39.28;;
19547;SDS011;9919;58.014;11.826;2023-05-02T10:03:19;85.50;;;31.33;;
19547;SDS011;9919;58.014;11.826;2023-05-02T10:05:24;68.13;;;24.05;;
19547;SDS011;9919;58.014;11.826;2023-05-02T10:07:26;69.75;;;22.08;;
19547;SDS011;9919;58.014;11.826;2023-05-02T10:09:28;65.53;;;22.58;;
19547;SDS011;9919;58.014;11.826;2023-05-02T10:11:31;74.93;;;21.52;;
19547;SDS011;9919;58.014;11.826;2023-05-02T10:13:34;59.72;;;21.10;;
19547;SDS011;9919;58.014;11.826;2023-05-02T10:15:41;69.45;;;22.70;;
19547;SDS011;9919;58.014;11.826;2023-05-02T10:17:46;66.18;;;21.83;;
19547;SDS011;9919;58.014;11.826;2023-05-02T10:21:57;77.75;;;29.80;;
19547;SDS011;9919;58.014;11.826;2023-05-02T10:23:59;87.65;;;26.50;;
19547;SDS011;9919;58.014;11.826;2023-05-02T10:26:03;59.78;;;24.27;;
19547;SDS011;9919;58.014;11.826;2023-05-02T10:28:04;65.72;;;23.17;;
19547;SDS011;9919;58.014;11.826;2023-05-02T10:30:06;65.05;;;23.25;;
19547;SDS011;9919;58.014;11.826;2023-05-02T10:32:08;66.57;;;22.52;;
19547;SDS011;9919;58.014;11.826;2023-05-02T10:34:10;51.25;;;20.58;;
19547;SDS011;9919;58.014;11.826;2023-05-02T10:36:12;60.38;;;19.90;;
19547;SDS011;9919;58.014;11.826;2023-05-02T10:38:15;53.78;;;18.48;;
19547;SDS011;9919;58.014;11.826;2023-05-02T10:40:18;47.08;;;19.17;;
19547;SDS011;9919;58.014;11.826;2023-05-02T10:42:19;59.08;;;18.83;;
19547;SDS011;9919;58.014;11.826;2023-05-02T10:44:35;58.78;;;19.52;;
19547;SDS011;9919;58.014;11.826;2023-05-02T10:46:38;54.88;;;18.98;;
19547;SDS011;9919;58.014;11.826;2023-05-02T10:48:40;51.25;;;18.90;;
19547;SDS011;9919;58.014;11.826;2023-05-02T10:50:42;51.50;;;19.08;;
19547;SDS011;9919;58.014;11.826;2023-05-02T10:52:48;48.63;;;18.63;;
19547;SDS011;9919;58.014;11.826;2023-05-02T10:54:49;41.20;;;16.63;;
19547;SDS011;9919;58.014;11.826;2023-05-02T10:57:04;52.00;;;18.10;;
19547;SDS011;9919;58.014;11.826;2023-05-02T10:59:28;51.28;;;16.60;;
19547;SDS011;9919;58.014;11.826;2023-05-02T11:06:03;47.28;;;14.85;;
19547;SDS011;9919;58.014;11.826;2023-05-02T11:14:42;31.90;;;13.27;;
19547;SDS011;9919;58.014;11.826;2023-05-02T11:18:59;36.80;;;12.60;;
19547;SDS011;9919;58.014;11.826;2023-05-02T11:23:27;35.50;;;12.63;;
19547;SDS011;9919;58.014;11.826;2023-05-02T11:25:30;36.30;;;11.93;;
19547;SDS011;9919;58.014;11.826;2023-05-02T11:27:35;25.85;;;10.82;;
19547;SDS011;9919;58.014;11.826;2023-05-02T11:29:55;37.33;;;12.18;;
19547;SDS011;9919;58.014;11.826;2023-05-02T11:31:57;27.33;;;10.82;;
19547;SDS011;9919;58.014;11.826;2023-05-02T11:33:59;27.05;;;10.20;;
19547;SDS011;9919;58.014;11.826;2023-05-02T11:36:01;33.03;;;11.25;;
19547;SDS011;9919;58.014;11.826;2023-05-02T11:38:04;34.13;;;9.95;;
19547;SDS011;9919;58.014;11.826;2023-05-02T11:40:15;28.00;;;9.63;;
19547;SDS011;9919;58.014;11.826;2023-05-02T11:42:29;24.35;;;9.50;;
19547;SDS011;9919;58.014;11.826;2023-05-02T11:44:31;30.40;;;9.45;;
19547;SDS011;9919;58.014;11.826;2023-05-02T11:46:36;22.92;;;9.65;;
19547;SDS011;9919;58.014;11.826;2023-05-02T11:48:38;18.77;;;9.35;;
19547;SDS011;9919;58.014;11.826;2023-05-02T11:50:50;18.88;;;8.75;;
19547;SDS011;9919;58.014;11.826;2023-05-02T11:52:53;25.40;;;8.85;;
19547;SDS011;9919;58.014;11.826;2023-05-02T11:54:55;20.35;;;9.20;;
19547;SDS011;9919;58.014;11.826;2023-05-02T11:56:59;19.60;;;9.25;;
19547;SDS011;9919;58.014;11.826;2023-05-02T11:59:01;17.63;;;9.68;;
19547;SDS011;9919;58.014;11.826;2023-05-02T12:01:13;26.77;;;8.68;;
19547;SDS011;9919;58.014;11.826;2023-05-02T12:03:32;21.85;;;8.27;;
19547;SDS011;9919;58.014;11.826;2023-05-02T12:05:34;14.10;;;7.43;;
19547;SDS011;9919;58.014;11.826;2023-05-02T12:07:45;17.52;;;7.15;;
19547;SDS011;9919;58.014;11.826;2023-05-02T12:09:51;18.85;;;7.15;;
19547;SDS011;9919;58.014;11.826;2023-05-02T12:11:53;18.42;;;7.30;;
19547;SDS011;9919;58.014;11.826;2023-05-02T12:13:55;15.73;;;6.70;;
19547;SDS011;9919;58.014;11.826;2023-05-02T12:15:56;16.63;;;7.30;;
19547;SDS011;9919;58.014;11.826;2023-05-02T12:17:58;15.15;;;7.35;;
19547;SDS011;9919;58.014;11.826;2023-05-02T12:20:02;19.10;;;7.68;;
19547;SDS011;9919;58.014;11.826;2023-05-02T12:22:04;12.45;;;7.18;;
19547;SDS011;9919;58.014;11.826;2023-05-02T12:24:06;12.05;;;6.30;;
19547;SDS011;9919;58.014;11.826;2023-05-02T12:26:19;16.58;;;6.00;;
19547;SDS011;9919;58.014;11.826;2023-05-02T12:28:28;15.40;;;6.60;;
19547;SDS011;9919;58.014;11.826;2023-05-02T12:30:29;21.50;;;6.90;;
19547;SDS011;9919;58.014;11.826;2023-05-02T12:32:33;16.30;;;6.97;;
19547;SDS011;9919;58.014;11.826;2023-05-02T12:34:35;12.50;;;5.15;;
19547;SDS011;9919;58.014;11.826;2023-05-02T12:36:42;16.33;;;5.55;;
19547;SDS011;9919;58.014;11.826;2023-05-02T12:38:48;13.23;;;6.20;;
19547;SDS011;9919;58.014;11.826;2023-05-02T12:40:53;14.52;;;5.72;;
19547;SDS011;9919;58.014;11.826;2023-05-02T12:42:59;14.50;;;5.60;;
19547;SDS011;9919;58.014;11.826;2023-05-02T12:45:03;11.98;;;5.78;;
19547;SDS011;9919;58.014;11.826;2023-05-02T12:47:06;11.20;;;5.18;;
19547;SDS011;9919;58.014;11.826;2023-05-02T12:49:09;13.32;;;6.45;;
19547;SDS011;9919;58.014;11.826;2023-05-02T12:51:20;13.75;;;5.50;;
19547;SDS011;9919;58.014;11.826;2023-05-02T12:53:42;9.48;;;4.95;;
19547;SDS011;9919;58.014;11.826;2023-05-02T12:55:44;10.52;;;5.43;;
19547;SDS011;9919;58.014;11.826;2023-05-02T12:57:46;9.25;;;5.05;;
19547;SDS011;9919;58.014;11.826;2023-05-02T12:59:50;12.75;;;5.03;;
19547;SDS011;9919;58.014;11.826;2023-05-02T13:01:53;10.20;;;5.20;;
19547;SDS011;9919;58.014;11.826;2023-05-02T13:03:55;11.55;;;5.55;;
19547;SDS011;9919;58.014;11.826;2023-05-02T13:05:56;10.52;;;4.00;;
19547;SDS011;9919;58.014;11.826;2023-05-02T13:07:58;12.88;;;5.00;;